sensor_id;sensor_type;location;lat;lon;timestamp;P1;durP1;ratioP1;P2;durP2;ratioP2
80778;SDS011;70170;47.856;10.956;2023-05-25T00:00:19;18.25;;;6.22;;
80778;SDS011;70170;47.856;10.956;2023-05-25T00:02:45;17.05;;;5.72;;
80778;SDS011;70170;47.856;10.956;2023-05-25T00:05:11;11.15;;;5.35;;
80778;SDS011;70170;47.856;10.956;2023-05-25T00:07:37;14.32;;;5.40;;
80778;SDS011;70170;47.856;10.956;2023-05-25T00:10:03;10.32;;;5.47;;
80778;SDS011;70170;47.856;10.956;2023-05-25T00:12:30;15.77;;;5.45;;
80778;SDS011;70170;47.856;10.956;2023-05-25T00:14:55;10.90;;;5.63;;
80778;SDS011;70170;47.856;10.956;2023-05-25T00:17:21;15.43;;;5.53;;
80778;SDS011;70170;47.856;10.956;2023-05-25T00:19:48;12.55;;;5.30;;
80778;SDS011;70170;47.856;10.956;2023-05-25T00:22:13;9.10;;;5.45;;
80778;SDS011;70170;47.856;10.956;2023-05-25T00:24:39;17.92;;;5.70;;
80778;SDS011;70170;47.856;10.956;2023-05-25T00:27:04;13.90;;;5.85;;
80778;SDS011;70170;47.856;10.956;2023-05-25T00:29:31;12.57;;;5.13;;
80778;SDS011;70170;47.856;10.956;2023-05-25T00:31:56;19.50;;;5.95;;
80778;SDS011;70170;47.856;10.956;2023-05-25T00:34:22;10.77;;;5.30;;
80778;SDS011;70170;47.856;10.956;2023-05-25T00:36:47;14.07;;;6.28;;
80778;SDS011;70170;47.856;10.956;2023-05-25T00:39:17;11.90;;;5.50;;
80778;SDS011;70170;47.856;10.956;2023-05-25T00:41:43;13.30;;;5.60;;
80778;SDS011;70170;47.856;10.956;2023-05-25T00:44:10;11.75;;;6.00;;
80778;SDS011;70170;47.856;10.956;2023-05-25T00:46:49;16.77;;;5.82;;
80778;SDS011;70170;47.856;10.956;2023-05-25T00:49:16;27.20;;;5.80;;
80778;SDS011;70170;47.856;10.956;2023-05-25T00:51:45;15.70;;;5.88;;
80778;SDS011;70170;47.856;10.956;2023-05-25T00:54:14;11.73;;;5.05;;
80778;SDS011;70170;47.856;10.956;2023-05-25T00:56:50;10.82;;;5.07;;
80778;SDS011;70170;47.856;10.956;2023-05-25T00:59:32;10.95;;;5.00;;
80778;SDS011;70170;47.856;10.956;2023-05-25T01:02:05;13.77;;;5.72;;
80778;SDS011;70170;47.856;10.956;2023-05-25T01:04:33;11.95;;;6.25;;
80778;SDS011;70170;47.856;10.956;2023-05-25T01:07:03;9.18;;;5.45;;
80778;SDS011;70170;47.856;10.956;2023-05-25T01:09:29;18.75;;;6.60;;
80778;SDS011;70170;47.856;10.956;2023-05-25T01:11:58;18.98;;;6.07;;
80778;SDS011;70170;47.856;10.956;2023-05-25T01:14:25;9.25;;;5.13;;
80778;SDS011;70170;47.856;10.956;2023-05-25T01:16:51;19.13;;;6.45;;
80778;SDS011;70170;47.856;10.956;2023-05-25T01:19:19;12.65;;;6.32;;
80778;SDS011;70170;47.856;10.956;2023-05-25T01:24:34;19.90;;;5.43;;
80778;SDS011;70170;47.856;10.956;2023-05-25T01:27:19;11.38;;;6.00;;
80778;SDS011;70170;47.856;10.956;2023-05-25T01:29:48;12.88;;;6.13;;
80778;SDS011;70170;47.856;10.956;2023-05-25T01:32:15;16.20;;;5.68;;
80778;SDS011;70170;47.856;10.956;2023-05-25T01:34:42;9.18;;;5.38;;
80778;SDS011;70170;47.856;10.956;2023-05-25T01:37:07;18.45;;;5.72;;
80778;SDS011;70170;47.856;10.956;2023-05-25T01:39:33;17.70;;;5.15;;
80778;SDS011;70170;47.856;10.956;2023-05-25T01:41:58;15.93;;;5.32;;
80778;SDS011;70170;47.856;10.956;2023-05-25T01:44:25;13.95;;;5.80;;
80778;SDS011;70170;47.856;10.956;2023-05-25T01:47:02;10.77;;;5.38;;
80778;SDS011;70170;47.856;10.956;2023-05-25T01:49:31;18.63;;;7.10;;
80778;SDS011;70170;47.856;10.956;2023-05-25T01:54:46;15.57;;;6.88;;
80778;SDS011;70170;47.856;10.956;2023-05-25T01:57:16;18.17;;;8.02;;
80778;SDS011;70170;47.856;10.956;2023-05-25T01:59:44;15.57;;;7.20;;
80778;SDS011;70170;47.856;10.956;2023-05-25T02:02:11;11.80;;;7.32;;
80778;SDS011;70170;47.856;10.956;2023-05-25T02:04:39;13.23;;;7.45;;
80778;SDS011;70170;47.856;10.956;2023-05-25T02:07:05;17.92;;;7.10;;
80778;SDS011;70170;47.856;10.956;2023-05-25T02:09:31;18.70;;;8.07;;
80778;SDS011;70170;47.856;10.956;2023-05-25T02:11:56;12.32;;;7.50;;
80778;SDS011;70170;47.856;10.956;2023-05-25T02:14:21;14.52;;;8.02;;
80778;SDS011;70170;47.856;10.956;2023-05-25T02:16:47;21.33;;;7.97;;
80778;SDS011;70170;47.856;10.956;2023-05-25T02:19:12;16.80;;;8.85;;
80778;SDS011;70170;47.856;10.956;2023-05-25T02:21:39;15.68;;;7.18;;
80778;SDS011;70170;47.856;10.956;2023-05-25T02:24:05;15.30;;;8.73;;
80778;SDS011;70170;47.856;10.956;2023-05-25T02:26:33;14.27;;;9.00;;
80778;SDS011;70170;47.856;10.956;2023-05-25T02:28:59;15.35;;;8.00;;
80778;SDS011;70170;47.856;10.956;2023-05-25T02:31:25;14.98;;;8.80;;
80778;SDS011;70170;47.856;10.956;2023-05-25T02:33:52;15.75;;;8.43;;
80778;SDS011;70170;47.856;10.956;2023-05-25T02:36:17;16.80;;;8.10;;
80778;SDS011;70170;47.856;10.956;2023-05-25T02:38:42;14.77;;;8.55;;
80778;SDS011;70170;47.856;10.956;2023-05-25T02:41:08;19.63;;;8.48;;
80778;SDS011;70170;47.856;10.956;2023-05-25T02:43:33;14.52;;;7.95;;
80778;SDS011;70170;47.856;10.956;2023-05-25T02:45:58;15.90;;;9.23;;
80778;SDS011;70170;47.856;10.956;2023-05-25T02:48:24;17.50;;;8.60;;
80778;SDS011;70170;47.856;10.956;2023-05-25T02:50:49;15.30;;;9.40;;
80778;SDS011;70170;47.856;10.956;2023-05-25T02:53:15;18.45;;;9.50;;
80778;SDS011;70170;47.856;10.956;2023-05-25T02:55:40;16.13;;;8.90;;
80778;SDS011;70170;47.856;10.956;2023-05-25T02:58:07;14.85;;;8.88;;
80778;SDS011;70170;47.856;10.956;2023-05-25T03:00:32;15.32;;;8.70;;
80778;SDS011;70170;47.856;10.956;2023-05-25T03:02:58;16.27;;;9.40;;
80778;SDS011;70170;47.856;10.956;2023-05-25T03:05:23;16.30;;;8.85;;
80778;SDS011;70170;47.856;10.956;2023-05-25T03:07:49;15.48;;;8.80;;
80778;SDS011;70170;47.856;10.956;2023-05-25T03:10:14;16.35;;;8.95;;
80778;SDS011;70170;47.856;10.956;2023-05-25T03:12:39;18.17;;;8.38;;
80778;SDS011;70170;47.856;10.956;2023-05-25T03:15:05;15.70;;;7.63;;
80778;SDS011;70170;47.856;10.956;2023-05-25T03:17:30;21.45;;;9.35;;
80778;SDS011;70170;47.856;10.956;2023-05-25T03:19:56;22.30;;;9.80;;
80778;SDS011;70170;47.856;10.956;2023-05-25T03:22:21;16.25;;;8.38;;
80778;SDS011;70170;47.856;10.956;2023-05-25T03:24:46;19.17;;;9.55;;
80778;SDS011;70170;47.856;10.956;2023-05-25T03:27:13;13.63;;;8.57;;
80778;SDS011;70170;47.856;10.956;2023-05-25T03:29:38;17.55;;;8.30;;
80778;SDS011;70170;47.856;10.956;2023-05-25T03:32:03;20.98;;;9.65;;
80778;SDS011;70170;47.856;10.956;2023-05-25T03:34:29;14.75;;;8.70;;
80778;SDS011;70170;47.856;10.956;2023-05-25T03:36:58;15.02;;;9.02;;
80778;SDS011;70170;47.856;10.956;2023-05-25T03:39:23;12.77;;;8.38;;
80778;SDS011;70170;47.856;10.956;2023-05-25T03:41:49;15.20;;;8.00;;
80778;SDS011;70170;47.856;10.956;2023-05-25T03:44:15;15.18;;;9.00;;
80778;SDS011;70170;47.856;10.956;2023-05-25T03:46:40;20.85;;;9.73;;
80778;SDS011;70170;47.856;10.956;2023-05-25T03:49:05;14.95;;;8.80;;
80778;SDS011;70170;47.856;10.956;2023-05-25T03:51:31;15.70;;;8.82;;
80778;SDS011;70170;47.856;10.956;2023-05-25T03:53:56;20.15;;;8.90;;
80778;SDS011;70170;47.856;10.956;2023-05-25T03:56:21;17.15;;;8.85;;
80778;SDS011;70170;47.856;10.956;2023-05-25T03:58:47;17.25;;;9.60;;
80778;SDS011;70170;47.856;10.956;2023-05-25T04:01:12;20.10;;;9.45;;
80778;SDS011;70170;47.856;10.956;2023-05-25T04:03:38;15.90;;;9.68;;
80778;SDS011;70170;47.856;10.956;2023-05-25T04:06:04;16.67;;;8.85;;
80778;SDS011;70170;47.856;10.956;2023-05-25T04:08:29;18.27;;;8.88;;
80778;SDS011;70170;47.856;10.956;2023-05-25T04:10:54;12.30;;;8.77;;
80778;SDS011;70170;47.856;10.956;2023-05-25T04:13:21;22.35;;;8.82;;
80778;SDS011;70170;47.856;10.956;2023-05-25T04:15:46;18.67;;;8.85;;
80778;SDS011;70170;47.856;10.956;2023-05-25T04:18:12;21.40;;;8.38;;
80778;SDS011;70170;47.856;10.956;2023-05-25T04:20:37;19.40;;;8.25;;
80778;SDS011;70170;47.856;10.956;2023-05-25T04:23:02;13.57;;;9.10;;
80778;SDS011;70170;47.856;10.956;2023-05-25T04:25:28;17.23;;;8.85;;
80778;SDS011;70170;47.856;10.956;2023-05-25T04:27:53;16.33;;;9.18;;
80778;SDS011;70170;47.856;10.956;2023-05-25T04:30:20;16.65;;;9.65;;
80778;SDS011;70170;47.856;10.956;2023-05-25T04:32:46;16.98;;;9.52;;
80778;SDS011;70170;47.856;10.956;2023-05-25T04:35:11;19.27;;;9.38;;
80778;SDS011;70170;47.856;10.956;2023-05-25T04:37:38;23.05;;;10.05;;
80778;SDS011;70170;47.856;10.956;2023-05-25T04:40:04;15.50;;;9.70;;
80778;SDS011;70170;47.856;10.956;2023-05-25T04:42:35;17.42;;;9.93;;
80778;SDS011;70170;47.856;10.956;2023-05-25T04:45:05;17.15;;;9.90;;
80778;SDS011;70170;47.856;10.956;2023-05-25T04:47:31;18.95;;;10.20;;
80778;SDS011;70170;47.856;10.956;2023-05-25T04:49:58;21.00;;;9.30;;
80778;SDS011;70170;47.856;10.956;2023-05-25T04:52:23;15.70;;;9.32;;
80778;SDS011;70170;47.856;10.956;2023-05-25T04:54:49;18.02;;;10.00;;
80778;SDS011;70170;47.856;10.956;2023-05-25T04:57:17;18.30;;;10.18;;
80778;SDS011;70170;47.856;10.956;2023-05-25T04:59:43;15.43;;;8.23;;
80778;SDS011;70170;47.856;10.956;2023-05-25T05:02:08;20.85;;;10.85;;
80778;SDS011;70170;47.856;10.956;2023-05-25T05:04:33;14.13;;;9.68;;
80778;SDS011;70170;47.856;10.956;2023-05-25T05:06:59;20.58;;;9.80;;
80778;SDS011;70170;47.856;10.956;2023-05-25T05:09:24;19.27;;;10.80;;
80778;SDS011;70170;47.856;10.956;2023-05-25T05:11:50;16.10;;;9.68;;
80778;SDS011;70170;47.856;10.956;2023-05-25T05:14:15;15.45;;;9.45;;
80778;SDS011;70170;47.856;10.956;2023-05-25T05:16:40;19.45;;;8.88;;
80778;SDS011;70170;47.856;10.956;2023-05-25T05:19:06;16.52;;;9.57;;
80778;SDS011;70170;47.856;10.956;2023-05-25T05:21:31;13.63;;;8.68;;
80778;SDS011;70170;47.856;10.956;2023-05-25T05:23:57;15.60;;;9.10;;
80778;SDS011;70170;47.856;10.956;2023-05-25T05:26:22;20.42;;;9.02;;
80778;SDS011;70170;47.856;10.956;2023-05-25T05:28:48;14.55;;;9.02;;
80778;SDS011;70170;47.856;10.956;2023-05-25T05:31:13;18.17;;;8.55;;
80778;SDS011;70170;47.856;10.956;2023-05-25T05:33:41;15.40;;;9.25;;
80778;SDS011;70170;47.856;10.956;2023-05-25T05:36:06;10.57;;;5.32;;
80778;SDS011;70170;47.856;10.956;2023-05-25T05:38:32;20.58;;;9.75;;
80778;SDS011;70170;47.856;10.956;2023-05-25T05:40:58;22.90;;;10.35;;
80778;SDS011;70170;47.856;10.956;2023-05-25T05:43:23;15.80;;;9.20;;
80778;SDS011;70170;47.856;10.956;2023-05-25T05:45:48;17.02;;;9.63;;
80778;SDS011;70170;47.856;10.956;2023-05-25T05:48:14;17.65;;;7.07;;
80778;SDS011;70170;47.856;10.956;2023-05-25T05:50:40;27.45;;;9.88;;
80778;SDS011;70170;47.856;10.956;2023-05-25T05:53:05;17.52;;;9.73;;
80778;SDS011;70170;47.856;10.956;2023-05-25T05:55:33;19.38;;;9.38;;
80778;SDS011;70170;47.856;10.956;2023-05-25T05:57:58;17.77;;;8.93;;
80778;SDS011;70170;47.856;10.956;2023-05-25T06:00:24;28.30;;;8.52;;
80778;SDS011;70170;47.856;10.956;2023-05-25T06:02:49;13.27;;;7.53;;
80778;SDS011;70170;47.856;10.956;2023-05-25T06:05:15;18.35;;;8.93;;
80778;SDS011;70170;47.856;10.956;2023-05-25T06:07:41;27.85;;;11.60;;
80778;SDS011;70170;47.856;10.956;2023-05-25T06:10:06;17.48;;;8.18;;
80778;SDS011;70170;47.856;10.956;2023-05-25T06:12:32;14.35;;;8.27;;
80778;SDS011;70170;47.856;10.956;2023-05-25T06:14:57;9.15;;;5.63;;
80778;SDS011;70170;47.856;10.956;2023-05-25T06:17:23;14.13;;;8.27;;
80778;SDS011;70170;47.856;10.956;2023-05-25T06:19:48;15.15;;;8.02;;
80778;SDS011;70170;47.856;10.956;2023-05-25T06:22:14;10.40;;;7.53;;
80778;SDS011;70170;47.856;10.956;2023-05-25T06:24:40;11.07;;;6.75;;
80778;SDS011;70170;47.856;10.956;2023-05-25T06:27:05;15.95;;;8.00;;
80778;SDS011;70170;47.856;10.956;2023-05-25T06:29:30;14.32;;;8.77;;
80778;SDS011;70170;47.856;10.956;2023-05-25T06:31:56;18.55;;;8.80;;
80778;SDS011;70170;47.856;10.956;2023-05-25T06:34:21;14.10;;;8.73;;
80778;SDS011;70170;47.856;10.956;2023-05-25T06:36:46;12.45;;;7.90;;
80778;SDS011;70170;47.856;10.956;2023-05-25T06:39:12;8.48;;;6.32;;
80778;SDS011;70170;47.856;10.956;2023-05-25T06:41:37;9.30;;;5.80;;
80778;SDS011;70170;47.856;10.956;2023-05-25T06:44:04;9.30;;;5.90;;
80778;SDS011;70170;47.856;10.956;2023-05-25T06:46:30;7.70;;;5.45;;
80778;SDS011;70170;47.856;10.956;2023-05-25T06:48:57;8.18;;;5.93;;
80778;SDS011;70170;47.856;10.956;2023-05-25T06:51:23;8.57;;;5.30;;
80778;SDS011;70170;47.856;10.956;2023-05-25T06:53:51;5.80;;;4.15;;
80778;SDS011;70170;47.856;10.956;2023-05-25T06:56:16;5.75;;;4.75;;
80778;SDS011;70170;47.856;10.956;2023-05-25T06:58:42;7.53;;;5.13;;
80778;SDS011;70170;47.856;10.956;2023-05-25T07:01:07;7.57;;;5.32;;
80778;SDS011;70170;47.856;10.956;2023-05-25T07:03:32;5.47;;;4.15;;
80778;SDS011;70170;47.856;10.956;2023-05-25T07:05:58;8.57;;;5.90;;
80778;SDS011;70170;47.856;10.956;2023-05-25T07:08:23;8.35;;;5.93;;
80778;SDS011;70170;47.856;10.956;2023-05-25T07:10:49;10.68;;;5.70;;
80778;SDS011;70170;47.856;10.956;2023-05-25T07:13:14;5.85;;;4.47;;
80778;SDS011;70170;47.856;10.956;2023-05-25T07:15:39;9.50;;;6.28;;
80778;SDS011;70170;47.856;10.956;2023-05-25T07:18:05;7.55;;;5.75;;
80778;SDS011;70170;47.856;10.956;2023-05-25T07:20:30;6.75;;;5.30;;
80778;SDS011;70170;47.856;10.956;2023-05-25T07:22:58;6.47;;;5.05;;
80778;SDS011;70170;47.856;10.956;2023-05-25T07:25:23;7.00;;;5.07;;
80778;SDS011;70170;47.856;10.956;2023-05-25T07:27:48;8.80;;;6.57;;
80778;SDS011;70170;47.856;10.956;2023-05-25T07:30:14;8.15;;;5.55;;
80778;SDS011;70170;47.856;10.956;2023-05-25T07:32:40;8.25;;;6.55;;
80778;SDS011;70170;47.856;10.956;2023-05-25T07:35:05;8.93;;;6.43;;
80778;SDS011;70170;47.856;10.956;2023-05-25T07:37:31;11.60;;;6.65;;
80778;SDS011;70170;47.856;10.956;2023-05-25T07:39:56;8.95;;;6.05;;
80778;SDS011;70170;47.856;10.956;2023-05-25T07:42:21;8.13;;;6.10;;
80778;SDS011;70170;47.856;10.956;2023-05-25T07:44:47;8.80;;;6.13;;
80778;SDS011;70170;47.856;10.956;2023-05-25T07:47:12;8.73;;;6.10;;
80778;SDS011;70170;47.856;10.956;2023-05-25T07:49:38;9.18;;;6.65;;
80778;SDS011;70170;47.856;10.956;2023-05-25T07:52:03;7.97;;;5.75;;
80778;SDS011;70170;47.856;10.956;2023-05-25T07:54:30;7.82;;;5.78;;
80778;SDS011;70170;47.856;10.956;2023-05-25T07:56:55;7.05;;;4.70;;
80778;SDS011;70170;47.856;10.956;2023-05-25T07:59:20;6.30;;;4.97;;
80778;SDS011;70170;47.856;10.956;2023-05-25T08:01:46;7.85;;;6.32;;
80778;SDS011;70170;47.856;10.956;2023-05-25T08:04:11;8.63;;;5.45;;
80778;SDS011;70170;47.856;10.956;2023-05-25T08:06:36;6.10;;;4.97;;
80778;SDS011;70170;47.856;10.956;2023-05-25T08:09:02;8.50;;;5.68;;
80778;SDS011;70170;47.856;10.956;2023-05-25T08:11:28;7.05;;;5.70;;
80778;SDS011;70170;47.856;10.956;2023-05-25T08:13:55;9.40;;;5.18;;
80778;SDS011;70170;47.856;10.956;2023-05-25T08:16:20;13.85;;;6.53;;
80778;SDS011;70170;47.856;10.956;2023-05-25T08:18:45;11.23;;;5.80;;
80778;SDS011;70170;47.856;10.956;2023-05-25T08:21:11;7.82;;;5.03;;
80778;SDS011;70170;47.856;10.956;2023-05-25T08:23:37;8.82;;;5.63;;
80778;SDS011;70170;47.856;10.956;2023-05-25T08:26:06;10.55;;;5.38;;
80778;SDS011;70170;47.856;10.956;2023-05-25T08:28:32;5.55;;;4.95;;
80778;SDS011;70170;47.856;10.956;2023-05-25T08:30:57;7.78;;;5.57;;
80778;SDS011;70170;47.856;10.956;2023-05-25T08:33:22;6.85;;;5.05;;
80778;SDS011;70170;47.856;10.956;2023-05-25T08:35:48;8.00;;;5.85;;
80778;SDS011;70170;47.856;10.956;2023-05-25T08:38:14;7.63;;;6.82;;
80778;SDS011;70170;47.856;10.956;2023-05-25T08:40:40;6.78;;;4.72;;
80778;SDS011;70170;47.856;10.956;2023-05-25T08:43:06;8.00;;;4.85;;
80778;SDS011;70170;47.856;10.956;2023-05-25T08:45:31;6.72;;;4.90;;
80778;SDS011;70170;47.856;10.956;2023-05-25T08:47:57;6.32;;;4.55;;
80778;SDS011;70170;47.856;10.956;2023-05-25T08:50:24;7.78;;;5.40;;
80778;SDS011;70170;47.856;10.956;2023-05-25T08:52:51;6.10;;;4.10;;
80778;SDS011;70170;47.856;10.956;2023-05-25T08:55:19;7.28;;;5.00;;
80778;SDS011;70170;47.856;10.956;2023-05-25T09:00:30;8.55;;;5.80;;
80778;SDS011;70170;47.856;10.956;2023-05-25T09:03:01;6.38;;;4.97;;
80778;SDS011;70170;47.856;10.956;2023-05-25T09:05:30;6.35;;;5.43;;
80778;SDS011;70170;47.856;10.956;2023-05-25T09:07:57;8.70;;;5.50;;
80778;SDS011;70170;47.856;10.956;2023-05-25T09:10:22;7.45;;;5.40;;
80778;SDS011;70170;47.856;10.956;2023-05-25T09:12:48;8.30;;;5.75;;
80778;SDS011;70170;47.856;10.956;2023-05-25T09:15:15;9.55;;;5.70;;
80778;SDS011;70170;47.856;10.956;2023-05-25T09:17:40;6.10;;;4.93;;
80778;SDS011;70170;47.856;10.956;2023-05-25T09:20:07;6.47;;;5.15;;
80778;SDS011;70170;47.856;10.956;2023-05-25T09:22:34;6.50;;;5.60;;
80778;SDS011;70170;47.856;10.956;2023-05-25T09:25:01;7.90;;;5.78;;
80778;SDS011;70170;47.856;10.956;2023-05-25T09:27:30;9.82;;;5.47;;
80778;SDS011;70170;47.856;10.956;2023-05-25T09:29:59;7.43;;;5.50;;
80778;SDS011;70170;47.856;10.956;2023-05-25T09:32:26;6.57;;;5.55;;
80778;SDS011;70170;47.856;10.956;2023-05-25T09:34:51;7.00;;;6.07;;
80778;SDS011;70170;47.856;10.956;2023-05-25T09:37:19;8.02;;;6.60;;
80778;SDS011;70170;47.856;10.956;2023-05-25T09:39:45;6.70;;;5.57;;
80778;SDS011;70170;47.856;10.956;2023-05-25T09:42:11;9.23;;;5.78;;
80778;SDS011;70170;47.856;10.956;2023-05-25T09:44:37;8.60;;;5.57;;
80778;SDS011;70170;47.856;10.956;2023-05-25T09:47:07;7.30;;;5.28;;
80778;SDS011;70170;47.856;10.956;2023-05-25T09:49:33;7.60;;;5.32;;
80778;SDS011;70170;47.856;10.956;2023-05-25T09:51:59;8.75;;;5.25;;
80778;SDS011;70170;47.856;10.956;2023-05-25T09:54:25;6.10;;;5.20;;
80778;SDS011;70170;47.856;10.956;2023-05-25T09:56:51;7.15;;;5.50;;
80778;SDS011;70170;47.856;10.956;2023-05-25T09:59:16;8.38;;;5.75;;
80778;SDS011;70170;47.856;10.956;2023-05-25T10:01:42;8.18;;;5.32;;
80778;SDS011;70170;47.856;10.956;2023-05-25T10:04:08;8.48;;;5.50;;
80778;SDS011;70170;47.856;10.956;2023-05-25T10:06:34;6.55;;;5.38;;
80778;SDS011;70170;47.856;10.956;2023-05-25T10:09:00;9.60;;;6.60;;
80778;SDS011;70170;47.856;10.956;2023-05-25T10:11:26;9.15;;;6.22;;
80778;SDS011;70170;47.856;10.956;2023-05-25T10:13:53;7.80;;;6.22;;
80778;SDS011;70170;47.856;10.956;2023-05-25T10:16:22;6.82;;;5.65;;
80778;SDS011;70170;47.856;10.956;2023-05-25T10:19:08;11.00;;;6.55;;
80778;SDS011;70170;47.856;10.956;2023-05-25T10:21:38;8.73;;;6.07;;
80778;SDS011;70170;47.856;10.956;2023-05-25T10:24:07;8.98;;;6.22;;
80778;SDS011;70170;47.856;10.956;2023-05-25T10:26:39;7.47;;;5.73;;
80778;SDS011;70170;47.856;10.956;2023-05-25T10:29:06;12.73;;;6.95;;
80778;SDS011;70170;47.856;10.956;2023-05-25T10:31:34;12.20;;;6.78;;
80778;SDS011;70170;47.856;10.956;2023-05-25T10:34:01;9.60;;;7.45;;
80778;SDS011;70170;47.856;10.956;2023-05-25T10:36:27;8.10;;;6.22;;
80778;SDS011;70170;47.856;10.956;2023-05-25T10:38:54;9.05;;;6.35;;
80778;SDS011;70170;47.856;10.956;2023-05-25T10:41:20;8.20;;;6.18;;
80778;SDS011;70170;47.856;10.956;2023-05-25T10:43:45;10.55;;;6.38;;
80778;SDS011;70170;47.856;10.956;2023-05-25T10:46:11;8.82;;;6.60;;
80778;SDS011;70170;47.856;10.956;2023-05-25T10:48:39;8.15;;;6.22;;
80778;SDS011;70170;47.856;10.956;2023-05-25T10:51:10;7.47;;;5.28;;
80778;SDS011;70170;47.856;10.956;2023-05-25T10:53:35;10.20;;;6.90;;
80778;SDS011;70170;47.856;10.956;2023-05-25T10:56:01;12.32;;;6.47;;
80778;SDS011;70170;47.856;10.956;2023-05-25T10:58:29;9.07;;;6.60;;
80778;SDS011;70170;47.856;10.956;2023-05-25T11:01:02;8.02;;;6.28;;
80778;SDS011;70170;47.856;10.956;2023-05-25T11:06:12;8.40;;;6.35;;
80778;SDS011;70170;47.856;10.956;2023-05-25T11:08:55;11.02;;;7.20;;
80778;SDS011;70170;47.856;10.956;2023-05-25T11:14:19;9.70;;;6.97;;
80778;SDS011;70170;47.856;10.956;2023-05-25T11:17:10;11.75;;;7.25;;
80778;SDS011;70170;47.856;10.956;2023-05-25T11:22:29;9.98;;;6.85;;
80778;SDS011;70170;47.856;10.956;2023-05-25T11:24:55;10.38;;;7.28;;
80778;SDS011;70170;47.856;10.956;2023-05-25T11:27:22;12.75;;;7.93;;
80778;SDS011;70170;47.856;10.956;2023-05-25T11:29:49;10.82;;;7.07;;
80778;SDS011;70170;47.856;10.956;2023-05-25T11:32:15;12.43;;;7.97;;
80778;SDS011;70170;47.856;10.956;2023-05-25T11:34:40;11.27;;;7.72;;
80778;SDS011;70170;47.856;10.956;2023-05-25T11:37:10;12.98;;;7.80;;
80778;SDS011;70170;47.856;10.956;2023-05-25T11:39:37;14.02;;;8.70;;
80778;SDS011;70170;47.856;10.956;2023-05-25T11:42:03;16.27;;;8.75;;
80778;SDS011;70170;47.856;10.956;2023-05-25T11:44:31;9.10;;;7.57;;
80778;SDS011;70170;47.856;10.956;2023-05-25T11:47:01;11.10;;;7.30;;
80778;SDS011;70170;47.856;10.956;2023-05-25T11:49:32;13.40;;;7.82;;
80778;SDS011;70170;47.856;10.956;2023-05-25T11:51:57;10.10;;;7.70;;
80778;SDS011;70170;47.856;10.956;2023-05-25T11:57:46;10.60;;;8.30;;
80778;SDS011;70170;47.856;10.956;2023-05-25T12:00:23;10.48;;;7.57;;
80778;SDS011;70170;47.856;10.956;2023-05-25T12:02:49;11.70;;;7.68;;
80778;SDS011;70170;47.856;10.956;2023-05-25T12:05:14;14.75;;;8.38;;
80778;SDS011;70170;47.856;10.956;2023-05-25T12:07:43;11.27;;;7.97;;
80778;SDS011;70170;47.856;10.956;2023-05-25T12:10:11;9.93;;;8.07;;
80778;SDS011;70170;47.856;10.956;2023-05-25T12:12:44;14.45;;;8.35;;
80778;SDS011;70170;47.856;10.956;2023-05-25T12:15:15;9.75;;;7.00;;
80778;SDS011;70170;47.856;10.956;2023-05-25T12:17:44;10.10;;;6.80;;
80778;SDS011;70170;47.856;10.956;2023-05-25T12:20:10;14.90;;;7.82;;
80778;SDS011;70170;47.856;10.956;2023-05-25T12:22:37;14.73;;;8.90;;
80778;SDS011;70170;47.856;10.956;2023-05-25T12:25:04;10.77;;;8.35;;
80778;SDS011;70170;47.856;10.956;2023-05-25T12:27:31;11.70;;;7.75;;
80778;SDS011;70170;47.856;10.956;2023-05-25T12:29:57;9.15;;;7.57;;
80778;SDS011;70170;47.856;10.956;2023-05-25T12:32:23;16.10;;;8.30;;
80778;SDS011;70170;47.856;10.956;2023-05-25T12:34:48;11.20;;;7.78;;
80778;SDS011;70170;47.856;10.956;2023-05-25T12:37:20;9.75;;;7.10;;
80778;SDS011;70170;47.856;10.956;2023-05-25T12:39:46;12.82;;;7.72;;
80778;SDS011;70170;47.856;10.956;2023-05-25T12:42:15;9.93;;;7.57;;
80778;SDS011;70170;47.856;10.956;2023-05-25T12:44:41;11.27;;;7.80;;
80778;SDS011;70170;47.856;10.956;2023-05-25T12:47:09;12.15;;;7.60;;
80778;SDS011;70170;47.856;10.956;2023-05-25T12:49:40;10.13;;;7.43;;
80778;SDS011;70170;47.856;10.956;2023-05-25T12:52:07;10.63;;;7.40;;
80778;SDS011;70170;47.856;10.956;2023-05-25T12:54:43;9.60;;;7.38;;
80778;SDS011;70170;47.856;10.956;2023-05-25T12:57:13;10.75;;;7.63;;
80778;SDS011;70170;47.856;10.956;2023-05-25T12:59:40;9.57;;;7.32;;
80778;SDS011;70170;47.856;10.956;2023-05-25T13:02:07;12.63;;;7.88;;
80778;SDS011;70170;47.856;10.956;2023-05-25T13:04:33;9.57;;;7.72;;
80778;SDS011;70170;47.856;10.956;2023-05-25T13:06:59;8.50;;;7.15;;
80778;SDS011;70170;47.856;10.956;2023-05-25T13:09:25;9.73;;;7.40;;
80778;SDS011;70170;47.856;10.956;2023-05-25T13:11:51;9.80;;;7.65;;
80778;SDS011;70170;47.856;10.956;2023-05-25T13:14:20;10.25;;;6.70;;
80778;SDS011;70170;47.856;10.956;2023-05-25T13:16:47;11.23;;;7.65;;
80778;SDS011;70170;47.856;10.956;2023-05-25T13:19:12;14.85;;;7.78;;
80778;SDS011;70170;47.856;10.956;2023-05-25T13:21:38;12.52;;;8.50;;
80778;SDS011;70170;47.856;10.956;2023-05-25T13:24:04;11.13;;;7.63;;
80778;SDS011;70170;47.856;10.956;2023-05-25T13:26:29;11.23;;;7.40;;
80778;SDS011;70170;47.856;10.956;2023-05-25T13:28:54;12.82;;;6.97;;
80778;SDS011;70170;47.856;10.956;2023-05-25T13:31:20;12.82;;;6.97;;
80778;SDS011;70170;47.856;10.956;2023-05-25T13:33:45;12.82;;;7.30;;
80778;SDS011;70170;47.856;10.956;2023-05-25T13:36:10;12.82;;;7.00;;
80778;SDS011;70170;47.856;10.956;2023-05-25T13:38:36;13.25;;;6.50;;
80778;SDS011;70170;47.856;10.956;2023-05-25T13:41:02;11.25;;;6.38;;
80778;SDS011;70170;47.856;10.956;2023-05-25T13:43:28;15.27;;;7.22;;
80778;SDS011;70170;47.856;10.956;2023-05-25T13:45:54;8.52;;;7.10;;
80778;SDS011;70170;47.856;10.956;2023-05-25T13:48:20;8.88;;;6.55;;
80778;SDS011;70170;47.856;10.956;2023-05-25T13:50:45;8.50;;;6.10;;
80778;SDS011;70170;47.856;10.956;2023-05-25T13:53:11;10.48;;;7.70;;
80778;SDS011;70170;47.856;10.956;2023-05-25T13:55:37;12.80;;;6.82;;
80778;SDS011;70170;47.856;10.956;2023-05-25T13:58:03;9.75;;;6.68;;
80778;SDS011;70170;47.856;10.956;2023-05-25T14:00:29;7.47;;;6.43;;
80778;SDS011;70170;47.856;10.956;2023-05-25T14:02:54;10.50;;;7.28;;
80778;SDS011;70170;47.856;10.956;2023-05-25T14:05:19;8.88;;;6.05;;
80778;SDS011;70170;47.856;10.956;2023-05-25T14:07:45;9.30;;;5.93;;
80778;SDS011;70170;47.856;10.956;2023-05-25T14:10:11;10.30;;;5.97;;
80778;SDS011;70170;47.856;10.956;2023-05-25T14:12:37;10.38;;;6.90;;
80778;SDS011;70170;47.856;10.956;2023-05-25T14:15:03;9.88;;;7.05;;
80778;SDS011;70170;47.856;10.956;2023-05-25T14:17:29;11.88;;;7.30;;
80778;SDS011;70170;47.856;10.956;2023-05-25T14:19:54;11.80;;;6.93;;
80778;SDS011;70170;47.856;10.956;2023-05-25T14:22:20;11.52;;;6.75;;
80778;SDS011;70170;47.856;10.956;2023-05-25T14:24:45;10.48;;;6.57;;
80778;SDS011;70170;47.856;10.956;2023-05-25T14:27:10;10.07;;;5.80;;
80778;SDS011;70170;47.856;10.956;2023-05-25T14:29:36;8.88;;;6.78;;
80778;SDS011;70170;47.856;10.956;2023-05-25T14:32:01;9.23;;;6.97;;
80778;SDS011;70170;47.856;10.956;2023-05-25T14:34:26;10.63;;;6.53;;
80778;SDS011;70170;47.856;10.956;2023-05-25T14:36:52;11.57;;;6.05;;
80778;SDS011;70170;47.856;10.956;2023-05-25T14:39:17;8.80;;;6.63;;
80778;SDS011;70170;47.856;10.956;2023-05-25T14:41:43;8.30;;;6.13;;